Villas del Rio Verde, Puerto Rico
Current Conditions -  °F | °C
As of 6:56 PM on Thursday 18 Dec 2014 (Local Time) from TJSJ Reporting Station
Scattered Clouds Scattered Clouds  
Wind Chill: 78°   Ceiling: Unl
Heat Index: 80°   Visibility: 10mi
Dew Point: 71°   Wind: 0mph
Humidity: 79%   Direction: NA
Pressure: 29.98"   Gusts: NA
Location:  18.2361°N, 66.0369°W
Report Text: TJSJ 182256Z 00000KT 10SM FEW031 SCT047 26/22 A2998 RMK AO2 RAB31E47 SLP151 VCSH W P0001 T02560217
Loading
Personal Weather Stations






























Interactive Weather Map New forecast layout! Learn more

10-Day Weather Forecast

Advertisements
Track Severe Weather on mobile